aviador You're here:

KSGF Decoded Metar

SPRINGFIELD in MO, USA
Report Time2018-01-18 20:52:00
UTC Time2018-01-18 21:41:13
Flight Rules vfr VFR
Wind210° at 12 kt
W.Decomp.*RWY 20: 11.9 kt HW 1.5 kt RCW
RWY 14: 4.7 kt HW 11.0 kt RCW
W.Rank210° ranks 8
Current wind is above 210° avg. (9.4)
Visibility9999 m
Phenomena:N/A
Clouds:N/A
Expected CloudBase > 4,400 ft AGL from Temp-Dew spread
CeilingNone
Temp05°C (ISA -7)
Dew Point-6°C (45% RH)
AAT-2.0°C
QNH1023 hPa
Density Alt102 ft
Elevation1,280 ft
Report Wrong Elevation
Raw Report
KSGF 182052Z 21012KT 10SM CLR 05/M06 A3022 RMK AO2 SLP247
T00501056 56032=

Extra information for KSGF:More info

Metar Taf Metar & Taf Last 4 Metars F.Rules Stats Wind Profile Meteogram Temp Stats Airport Information Weather charts Add Link Nearby VenuesMetar ALERT Operation Metar Decoded Social comments

AIRNAV info for KSGF